Weather History for KEFT - November, 2013

Change the Weather History Date:

Friday, November 8, 2013

  Actual Average Record
Temperature  
Mean Temperature 36 °F -  
Max Temperature 46 °F 0 °F 73 °F (1999)
Min Temperature 25 °F - 15 °F (2003)
Degree Days  
Heating Degree Days 30    
Moisture  
Dew Point 30 °F    
Average Humidity 78    
Maximum Humidity 100    
Minimum Humidity 52    
Precipitation  
Precipitation 0.00 in - - ()
Sea Level Pressure  
Sea Level Pressure 30.11 in    
Wind  
Wind Speed 10 mph (South)    
Max Wind Speed 28 mph    
Max Gust Speed 41 mph    
Visibility 10 miles    
Events Rain    
Averages and records for this station are not official NWS values.
T = Trace of Precipitation, MM = Missing Value Source: NWS Daily Summary

Daily Weather History Graph

Daily Weather History Graph

Search for Another Location

Airport or City:

Trip Planner

Search our weather history database for the weather conditions in past years. The results will help you decide how hot, cold, wet, or windy it might be!

Date:

Astronomy

Nov. 08, 2013 Rise Set
Actual Time 6:41 AM CST 4:42 PM CST
Civil Twilight 6:11 AM CST 5:12 PM CST
Nautical Twilight 5:37 AM CST 5:45 PM CST
Astronomical Twilight 5:04 AM CST 6:19 PM CST
Moon 11:37 AM CST (11/8) 10:03 PM CST (11/8)
Length of Visible Light 11h 00m
Length of Day
10h 01m
Waxing Crescent, 33% of the Moon is Illuminated
Nov 8
Waxing Crescent
Nov 9
First Quarter
Nov 17
Full
Nov 25
Last Quarter
Dec 2
New

Hourly Weather History & Observations

Time (CST) Temp. Windchill Dew Point Humidity Pressure Visibility Wind Dir Wind Speed Gust Speed Precip Events Conditions
12:15 AM 30.9 °F 23.5 °F 30.9 °F 100% 30.23 in 10.0 mi West 8.1 mph - N/A   Clear
12:35 AM 31.1 °F 23.7 °F 31.1 °F 100% 30.23 in 10.0 mi West 8.1 mph - N/A   Clear
12:55 AM 30.2 °F 21.9 °F 30.2 °F 100% 30.23 in 10.0 mi West 9.2 mph - N/A   Clear
1:15 AM 30.9 °F 23.5 °F 30.9 °F 100% 30.23 in 10.0 mi WNW 8.1 mph - N/A   Clear
1:35 AM 30.2 °F 23.4 °F 30.2 °F 100% 30.23 in 10.0 mi West 6.9 mph - N/A   Clear
1:55 AM 30.2 °F 23.4 °F 30.2 °F 100% 30.23 in 10.0 mi West 6.9 mph - N/A   Clear
2:15 AM 28.8 °F 20.9 °F 28.8 °F 100% 30.23 in 10.0 mi WSW 8.1 mph - N/A   Clear
2:35 AM 27.5 °F 22.2 °F 27.5 °F 100% 30.23 in 10.0 mi SW 4.6 mph - N/A   Clear
2:55 AM 28.8 °F 22.6 °F 28.8 °F 100% 30.23 in 10.0 mi West 5.8 mph - N/A   Clear
3:15 AM 29.3 °F 23.2 °F 29.3 °F 100% 30.23 in 10.0 mi West 5.8 mph - N/A   Clear
3:35 AM 26.8 °F 20.2 °F 26.8 °F 100% 30.24 in 10.0 mi WSW 5.8 mph - N/A   Clear
3:55 AM 28.9 °F 22.8 °F 28.9 °F 100% 30.24 in 10.0 mi West 5.8 mph - N/A   Clear
4:15 AM 30.0 °F 24.1 °F 30.0 °F 100% 30.24 in 10.0 mi West 5.8 mph - N/A   Clear
4:35 AM 26.8 °F 19.3 °F 26.8 °F 100% 30.25 in 10.0 mi WSW 6.9 mph - N/A   Clear
4:55 AM 28.2 °F 22.0 °F 28.2 °F 100% 30.25 in 10.0 mi WSW 5.8 mph - N/A   Clear
5:15 AM 27.7 °F 21.3 °F 27.7 °F 100% 30.25 in 10.0 mi WSW 5.8 mph - N/A   Clear
5:35 AM 28.0 °F 21.7 °F 28.0 °F 100% 30.25 in 10.0 mi SW 5.8 mph - N/A   Clear
5:55 AM 27.5 °F 21.1 °F 27.5 °F 100% 30.24 in 10.0 mi SW 5.8 mph - N/A   Clear
6:15 AM 25.7 °F 17.1 °F 25.7 °F 100% 30.25 in 7.0 mi SW 8.1 mph - N/A   Clear
6:35 AM 25.3 °F 18.5 °F 25.3 °F 100% 30.25 in 7.0 mi SW 5.8 mph - N/A   Clear
6:55 AM 25.3 °F 18.5 °F 25.3 °F 100% 30.26 in 5.0 mi SSW 5.8 mph - N/A   Clear
7:15 AM 25.5 °F 19.9 °F 25.5 °F 100% 30.26 in 5.0 mi South 4.6 mph - N/A   Clear
7:35 AM 27.0 °F 20.5 °F 27.0 °F 100% 30.26 in 5.0 mi South 5.8 mph - N/A   Clear
7:55 AM 28.6 °F 23.5 °F 28.6 °F 100% 30.27 in 5.0 mi South 4.6 mph - N/A   Clear
8:15 AM 30.4 °F 26.9 °F 30.4 °F 100% 30.27 in 10.0 mi SSE 3.5 mph - N/A   Clear
8:35 AM 32.0 °F 26.4 °F 32.0 °F 100% 30.26 in 10.0 mi South 5.8 mph - N/A   Clear
8:55 AM 33.1 °F 26.9 °F 33.1 °F 100% 30.26 in 10.0 mi SSW 6.9 mph - N/A   Clear
9:15 AM 33.6 °F 26.8 °F 33.6 °F 100% 30.25 in 10.0 mi South 8.1 mph - N/A   Clear
9:35 AM 35.1 °F 27.9 °F 32.9 °F 92% 30.24 in 10.0 mi South 9.2 mph - N/A   Clear
9:55 AM 35.4 °F 28.4 °F 31.8 °F 87% 30.24 in 10.0 mi South 9.2 mph - N/A   Clear
10:15 AM 36.3 °F 30.1 °F 31.1 °F 81% 30.24 in 10.0 mi South 8.1 mph - N/A   Clear
10:35 AM 37.4 °F 32.1 °F 29.8 °F 74% 30.23 in 10.0 mi South 6.9 mph - N/A   Clear
10:55 AM 39.4 °F 32.7 °F 30.6 °F 71% 30.23 in 10.0 mi South 10.4 mph - N/A   Clear
11:15 AM 40.1 °F 33.6 °F 30.7 °F 69% 30.21 in 10.0 mi South 10.4 mph - N/A   Clear
11:35 AM 40.1 °F 33.6 °F 30.9 °F 70% 30.20 in 10.0 mi South 10.4 mph - N/A   Clear
11:55 AM 41.0 °F 34.3 °F 30.6 °F 66% 30.19 in 10.0 mi South 11.5 mph - N/A   Clear
12:15 PM 42.4 °F 36.5 °F 31.1 °F 64% 30.18 in 10.0 mi South 10.4 mph - N/A   Clear
12:35 PM 41.0 °F 34.3 °F 29.7 °F 64% 30.16 in 10.0 mi South 11.5 mph - N/A   Clear
12:55 PM 41.9 °F 35.0 °F 29.8 °F 62% 30.15 in 10.0 mi South 12.7 mph - N/A   Clear
1:15 PM 42.8 °F 35.8 °F 28.2 °F 56% 30.13 in 10.0 mi South 13.8 mph - N/A   Clear
1:35 PM 44.6 °F 39.7 °F 28.0 °F 52% 30.13 in 10.0 mi South 9.2 mph 17.3 mph N/A   Clear
1:55 PM 44.2 °F 38.8 °F 28.2 °F 53% 30.12 in 10.0 mi SSE 10.4 mph - N/A   Clear
2:15 PM 44.8 °F 38.7 °F 29.3 °F 55% 30.10 in 10.0 mi SSE 12.7 mph - N/A   Clear
2:35 PM 44.8 °F 37.7 °F 29.8 °F 56% 30.10 in 10.0 mi SSE 16.1 mph 21.9 mph N/A   Mostly Cloudy
2:55 PM 45.7 °F 38.8 °F 28.8 °F 52% 30.08 in 10.0 mi South 16.1 mph 21.9 mph N/A   Scattered Clouds
3:15 PM 46.0 °F 38.5 °F 30.0 °F 54% 30.05 in 10.0 mi SSE 19.6 mph 24.2 mph N/A   Clear
3:35 PM 45.1 °F 38.8 °F 30.0 °F 55% 30.05 in 10.0 mi SSE 13.8 mph - N/A   Clear
3:55 PM 44.2 °F 38.0 °F 30.7 °F 59% 30.05 in 10.0 mi SSE 12.7 mph - N/A   Clear
4:15 PM 43.3 °F 37.2 °F 30.9 °F 62% 30.04 in 10.0 mi SSE 11.5 mph - N/A   Clear
4:35 PM 43.0 °F 35.7 °F 29.8 °F 60% 30.01 in 10.0 mi SSE 15.0 mph 19.6 mph N/A   Clear
4:55 PM 43.2 °F 35.9 °F 28.4 °F 56% 30.00 in 10.0 mi SSE 15.0 mph 20.7 mph N/A   Clear
5:15 PM 42.3 °F 35.1 °F 28.9 °F 59% 29.99 in 10.0 mi SE 13.8 mph - N/A   Clear
5:35 PM 42.6 °F 33.8 °F 29.1 °F 59% 29.98 in 10.0 mi SSE 20.7 mph 24.2 mph N/A   Clear
5:55 PM 42.1 °F 34.5 °F 29.3 °F 61% 29.98 in 10.0 mi SSE 15.0 mph 20.7 mph N/A   Clear
6:15 PM 42.1 °F 34.9 °F 29.8 °F 62% 29.99 in 10.0 mi SSE 13.8 mph 23.0 mph N/A   Clear
6:35 PM 41.9 °F 33.7 °F 30.2 °F 63% 29.98 in 10.0 mi SSE 17.3 mph 24.2 mph N/A   Clear
6:55 PM 42.1 °F 33.6 °F 30.6 °F 64% 29.99 in 10.0 mi South 18.4 mph 23.0 mph N/A   Clear
7:15 PM 42.1 °F 33.9 °F 30.9 °F 65% 29.99 in 10.0 mi SSE 17.3 mph 23.0 mph N/A   Clear
7:35 PM 41.9 °F 33.4 °F 31.1 °F 66% 29.98 in 10.0 mi SSE 18.4 mph 21.9 mph N/A   Scattered Clouds
7:55 PM 42.1 °F 34.9 °F 31.5 °F 66% 29.96 in 10.0 mi SSE 13.8 mph 21.9 mph N/A   Clear
8:15 PM 41.9 °F 34.3 °F 31.6 °F 67% 29.95 in 10.0 mi SSE 15.0 mph - N/A   Clear
8:35 PM 42.3 °F 34.8 °F 31.6 °F 66% 29.94 in 10.0 mi SSE 15.0 mph 24.2 mph N/A   Scattered Clouds
8:55 PM 42.3 °F 34.4 °F 32.0 °F 67% 29.94 in 10.0 mi South 16.1 mph 23.0 mph N/A   Mostly Cloudy
9:15 PM 42.8 °F 34.8 °F 32.0 °F 66% 29.93 in 10.0 mi South 17.3 mph 21.9 mph N/A   Overcast
9:35 PM 43.3 °F 36.1 °F 32.0 °F 64% 29.91 in 10.0 mi South 15.0 mph 23.0 mph N/A   Light Drizzle
9:55 PM 43.7 °F 35.4 °F 32.5 °F 65% 29.88 in 10.0 mi South 19.6 mph 31.1 mph N/A Rain Light Rain
10:15 PM 43.7 °F 35.0 °F 32.7 °F 65% 29.86 in 10.0 mi South 21.9 mph 28.8 mph N/A   Overcast
10:35 PM 44.6 °F 35.7 °F 32.2 °F 62% 29.84 in 10.0 mi South 24.2 mph 32.2 mph N/A   Overcast
10:55 PM 45.0 °F 35.8 °F 32.0 °F 60% 29.82 in 10.0 mi South 26.5 mph 31.1 mph N/A   Overcast
11:15 PM 45.9 °F 36.8 °F 32.2 °F 59% 29.80 in 10.0 mi South 27.6 mph 33.4 mph N/A   Overcast
11:35 PM 46.4 °F 37.5 °F 32.5 °F 59% 29.79 in 10.0 mi South 27.6 mph 38.0 mph N/A   Overcast
11:55 PM 46.8 °F - 32.9 °F 59% 29.78 in 10.0 mi South 26.5 mph 41.4 mph N/A   Mostly Cloudy